KDNV/DNV METAR and TAF weather

Enter ICAO airport designator
Station Type Date Time Source
KDNV METAR 2019/02/23 02:35 UTC NOAA

KDNV 230235Z AUTO 08009KT 7SM BKN065 OVC090 02/M01 A3025 RMK AO2 T00151014


Station Type Date Time Source
KDNV Decoded METAR 2019/02/23 02:35 UTC NOAA

Danville, Vermilion County Airport, IL, United States (KDNV) 40-11-58N 087-35-44W
Feb 22, 2019 - 09:35 PM EST / 2019.02.23 0235 UTC
Wind: from the E (080 degrees) at 10 MPH (9 KT):0
Visibility: 7 mile(s):0
Sky conditions: overcast
Temperature: 34.7 F (1.5 C)
Windchill: 26 F (-3 C):1
Dew Point: 29.5 F (-1.4 C)
Relative Humidity: 81%
Pressure (altimeter): 30.25 in. Hg (1024 hPa)
ob: KDNV 230235Z AUTO 08009KT 7SM BKN065 OVC090 02/M01 A3025 RMK AO2 T00151014
cycle: 2

Station Type Date Time Source
KDNV TAF UTC NOAA

Error!


Example: see airport list